sensor_id;sensor_type;location;lat;lon;timestamp;pressure;altitude;pressure_sealevel;temperature;humidity
13011;BME280;6786;57.632;11.962;2022-10-17T00:01:13;101056.47;;;20.99;54.69
13011;BME280;6786;57.632;11.962;2022-10-17T00:03:42;101082.91;;;21.13;54.76
13011;BME280;6786;57.632;11.962;2022-10-17T00:06:12;101096.38;;;21.13;54.74
13011;BME280;6786;57.632;11.962;2022-10-17T00:08:42;101098.06;;;21.14;54.86
13011;BME280;6786;57.632;11.962;2022-10-17T00:11:14;101071.16;;;20.95;54.77
13011;BME280;6786;57.632;11.962;2022-10-17T00:13:47;101107.13;;;21.13;54.88
13011;BME280;6786;57.632;11.962;2022-10-17T00:16:23;101087.00;;;20.98;54.70
13011;BME280;6786;57.632;11.962;2022-10-17T00:18:53;101112.50;;;21.13;54.83
13011;BME280;6786;57.632;11.962;2022-10-17T00:21:22;101108.13;;;21.12;54.94
13011;BME280;6786;57.632;11.962;2022-10-17T00:23:52;101111.78;;;21.11;55.06
13011;BME280;6786;57.632;11.962;2022-10-17T00:26:20;101118.16;;;21.10;54.79
13011;BME280;6786;57.632;11.962;2022-10-17T00:28:50;101103.69;;;21.11;54.77
13011;BME280;6786;57.632;11.962;2022-10-17T00:31:20;101117.16;;;21.11;54.94
13011;BME280;6786;57.632;11.962;2022-10-17T00:33:52;101114.44;;;21.11;54.89
13011;BME280;6786;57.632;11.962;2022-10-17T00:36:22;101119.84;;;21.11;54.72
13011;BME280;6786;57.632;11.962;2022-10-17T00:38:52;101141.34;;;21.11;55.13
13011;BME280;6786;57.632;11.962;2022-10-17T00:41:24;101132.31;;;21.12;54.95
13011;BME280;6786;57.632;11.962;2022-10-17T00:43:56;101119.84;;;21.11;54.94
13011;BME280;6786;57.632;11.962;2022-10-17T00:46:27;101114.72;;;21.08;54.90
13011;BME280;6786;57.632;11.962;2022-10-17T00:49:00;101135.13;;;21.11;54.65
13011;BME280;6786;57.632;11.962;2022-10-17T00:51:33;101129.75;;;21.11;54.71
13011;BME280;6786;57.632;11.962;2022-10-17T00:54:02;101134.28;;;21.10;54.78
13011;BME280;6786;57.632;11.962;2022-10-17T00:56:32;101144.44;;;21.07;54.90
13011;BME280;6786;57.632;11.962;2022-10-17T00:59:01;101139.47;;;21.02;54.75
13011;BME280;6786;57.632;11.962;2022-10-17T01:01:35;101145.03;;;21.10;54.75
13011;BME280;6786;57.632;11.962;2022-10-17T01:04:05;101139.66;;;21.10;54.93
13011;BME280;6786;57.632;11.962;2022-10-17T01:06:35;101121.75;;;20.90;54.60
13011;BME280;6786;57.632;11.962;2022-10-17T01:09:03;101142.16;;;21.02;54.88
13011;BME280;6786;57.632;11.962;2022-10-17T01:11:36;101140.50;;;21.11;54.84
13011;BME280;6786;57.632;11.962;2022-10-17T01:14:12;101155.78;;;21.10;54.88
13011;BME280;6786;57.632;11.962;2022-10-17T01:16:52;101120.03;;;20.89;54.57
13011;BME280;6786;57.632;11.962;2022-10-17T01:19:38;101145.88;;;21.11;54.45
13011;BME280;6786;57.632;11.962;2022-10-17T01:22:15;101143.34;;;21.09;54.82
13011;BME280;6786;57.632;11.962;2022-10-17T01:24:50;101154.91;;;21.10;54.61
13011;BME280;6786;57.632;11.962;2022-10-17T01:27:37;101154.09;;;21.09;54.38
13011;BME280;6786;57.632;11.962;2022-10-17T01:33:29;101161.88;;;21.12;54.74
13011;BME280;6786;57.632;11.962;2022-10-17T01:36:04;101156.03;;;21.07;54.57
13011;BME280;6786;57.632;11.962;2022-10-17T01:38:43;101164.84;;;21.09;54.59
13011;BME280;6786;57.632;11.962;2022-10-17T01:41:18;101162.84;;;21.11;54.78
13011;BME280;6786;57.632;11.962;2022-10-17T01:43:54;101162.84;;;21.11;54.45
13011;BME280;6786;57.632;11.962;2022-10-17T01:46:30;101162.84;;;21.11;54.54
13011;BME280;6786;57.632;11.962;2022-10-17T01:49:03;101173.59;;;21.11;54.57
13011;BME280;6786;57.632;11.962;2022-10-17T01:51:35;101172.75;;;21.11;54.52
13011;BME280;6786;57.632;11.962;2022-10-17T01:54:08;101133.06;;;20.84;54.69
13011;BME280;6786;57.632;11.962;2022-10-17T01:56:39;101177.28;;;21.10;54.39
13011;BME280;6786;57.632;11.962;2022-10-17T01:59:12;101151.78;;;20.95;54.63
13011;BME280;6786;57.632;11.962;2022-10-17T02:01:43;101171.91;;;21.10;54.75
13011;BME280;6786;57.632;11.962;2022-10-17T02:04:14;101168.22;;;21.11;54.48
13011;BME280;6786;57.632;11.962;2022-10-17T02:06:43;101169.03;;;21.02;54.54
13011;BME280;6786;57.632;11.962;2022-10-17T02:09:16;101179.50;;;21.05;54.61
13011;BME280;6786;57.632;11.962;2022-10-17T02:12:05;101185.34;;;21.10;54.55
13011;BME280;6786;57.632;11.962;2022-10-17T02:14:48;101169.34;;;20.99;54.63
13011;BME280;6786;57.632;11.962;2022-10-17T02:17:24;101196.94;;;21.11;54.70
13011;BME280;6786;57.632;11.962;2022-10-17T02:20:02;101197.09;;;21.09;54.71
13011;BME280;6786;57.632;11.962;2022-10-17T02:22:42;101197.91;;;21.10;54.46
13011;BME280;6786;57.632;11.962;2022-10-17T02:25:22;101185.75;;;20.96;54.58
13011;BME280;6786;57.632;11.962;2022-10-17T02:28:01;101205.16;;;21.09;54.73
13011;BME280;6786;57.632;11.962;2022-10-17T02:30:36;101208.66;;;21.10;54.55
13011;BME280;6786;57.632;11.962;2022-10-17T02:33:09;101198.78;;;21.10;54.57
13011;BME280;6786;57.632;11.962;2022-10-17T02:35:43;101193.22;;;21.02;54.60
13011;BME280;6786;57.632;11.962;2022-10-17T02:38:13;101217.72;;;21.09;54.65
13011;BME280;6786;57.632;11.962;2022-10-17T02:40:43;101190.13;;;20.97;54.42
13011;BME280;6786;57.632;11.962;2022-10-17T02:43:13;101213.34;;;21.08;54.76
13011;BME280;6786;57.632;11.962;2022-10-17T02:45:42;101218.59;;;21.09;54.60
13011;BME280;6786;57.632;11.962;2022-10-17T02:48:16;101213.22;;;21.09;54.30
13011;BME280;6786;57.632;11.962;2022-10-17T02:50:55;101220.28;;;21.10;54.61
13011;BME280;6786;57.632;11.962;2022-10-17T02:53:33;101223.97;;;21.09;54.54
13011;BME280;6786;57.632;11.962;2022-10-17T02:56:08;101220.28;;;21.10;54.62
13011;BME280;6786;57.632;11.962;2022-10-17T02:58:38;101218.59;;;21.09;54.46
13011;BME280;6786;57.632;11.962;2022-10-17T03:01:08;101217.59;;;21.10;54.30
13011;BME280;6786;57.632;11.962;2022-10-17T03:03:36;101228.34;;;21.10;54.35
13011;BME280;6786;57.632;11.962;2022-10-17T03:06:06;101223.97;;;21.09;54.31
13011;BME280;6786;57.632;11.962;2022-10-17T03:08:35;101225.66;;;21.10;54.48
13011;BME280;6786;57.632;11.962;2022-10-17T03:11:08;101225.66;;;21.10;54.14
13011;BME280;6786;57.632;11.962;2022-10-17T03:13:37;101232.72;;;21.11;54.54
13011;BME280;6786;57.632;11.962;2022-10-17T03:16:05;101246.28;;;21.10;54.33
13011;BME280;6786;57.632;11.962;2022-10-17T03:18:34;101235.41;;;21.02;54.38
13011;BME280;6786;57.632;11.962;2022-10-17T03:21:02;101246.56;;;21.07;54.57
13011;BME280;6786;57.632;11.962;2022-10-17T03:23:32;101244.75;;;21.07;54.39
13011;BME280;6786;57.632;11.962;2022-10-17T03:26:02;101252.53;;;21.10;54.41
13011;BME280;6786;57.632;11.962;2022-10-17T03:28:30;101257.31;;;21.07;54.41
13011;BME280;6786;57.632;11.962;2022-10-17T03:30:59;101270.63;;;21.08;54.42
13011;BME280;6786;57.632;11.962;2022-10-17T03:33:33;101228.06;;;20.83;54.37
13011;BME280;6786;57.632;11.962;2022-10-17T03:36:04;101268.66;;;21.10;54.51
13011;BME280;6786;57.632;11.962;2022-10-17T03:38:35;101265.97;;;21.10;54.31
13011;BME280;6786;57.632;11.962;2022-10-17T03:41:04;101257.91;;;21.10;54.27
13011;BME280;6786;57.632;11.962;2022-10-17T03:43:34;101257.91;;;21.10;54.29
13011;BME280;6786;57.632;11.962;2022-10-17T03:46:03;101251.69;;;21.10;54.51
13011;BME280;6786;57.632;11.962;2022-10-17T03:48:33;101232.97;;;20.99;54.43
13011;BME280;6786;57.632;11.962;2022-10-17T03:51:04;101235.25;;;21.03;54.25
13011;BME280;6786;57.632;11.962;2022-10-17T03:53:35;101256.22;;;21.09;54.59
13011;BME280;6786;57.632;11.962;2022-10-17T03:56:11;101250.13;;;21.07;54.18
13011;BME280;6786;57.632;11.962;2022-10-17T03:58:40;101240.91;;;21.00;54.41
13011;BME280;6786;57.632;11.962;2022-10-17T04:01:11;101255.22;;;21.10;54.42
13011;BME280;6786;57.632;11.962;2022-10-17T04:03:41;101256.22;;;21.09;54.62
13011;BME280;6786;57.632;11.962;2022-10-17T04:06:11;101225.81;;;20.88;54.39
13011;BME280;6786;57.632;11.962;2022-10-17T04:08:43;101266.38;;;21.06;54.62
13011;BME280;6786;57.632;11.962;2022-10-17T04:11:14;101270.34;;;21.11;54.36
13011;BME280;6786;57.632;11.962;2022-10-17T04:13:43;101272.34;;;21.09;54.18
13011;BME280;6786;57.632;11.962;2022-10-17T04:16:15;101277.47;;;21.12;54.41
13011;BME280;6786;57.632;11.962;2022-10-17T04:18:46;101274.31;;;21.07;54.58
13011;BME280;6786;57.632;11.962;2022-10-17T04:21:26;101265.22;;;20.99;54.23
13011;BME280;6786;57.632;11.962;2022-10-17T04:23:58;101296.97;;;21.14;54.53
13011;BME280;6786;57.632;11.962;2022-10-17T04:26:27;101294.28;;;21.14;54.08
13011;BME280;6786;57.632;11.962;2022-10-17T04:28:58;101284.53;;;21.13;54.42
13011;BME280;6786;57.632;11.962;2022-10-17T04:31:27;101282.84;;;21.12;54.18
13011;BME280;6786;57.632;11.962;2022-10-17T04:33:56;101288.22;;;21.12;54.35
13011;BME280;6786;57.632;11.962;2022-10-17T04:36:24;101266.34;;;20.96;54.28
13011;BME280;6786;57.632;11.962;2022-10-17T04:38:53;101283.78;;;21.11;54.13
13011;BME280;6786;57.632;11.962;2022-10-17T04:41:22;101279.41;;;21.10;54.25
13011;BME280;6786;57.632;11.962;2022-10-17T04:43:54;101288.34;;;21.11;54.27
13011;BME280;6786;57.632;11.962;2022-10-17T04:46:23;101292.66;;;21.02;54.34
13011;BME280;6786;57.632;11.962;2022-10-17T04:48:52;101277.59;;;20.90;54.06
13011;BME280;6786;57.632;11.962;2022-10-17T04:51:21;101261.56;;;20.79;54.27
13011;BME280;6786;57.632;11.962;2022-10-17T04:53:52;101311.66;;;21.10;54.34
13011;BME280;6786;57.632;11.962;2022-10-17T04:56:23;101274.47;;;20.85;54.10
13011;BME280;6786;57.632;11.962;2022-10-17T04:58:51;101306.56;;;21.07;54.21
13011;BME280;6786;57.632;11.962;2022-10-17T05:01:21;101315.34;;;21.09;54.49
13011;BME280;6786;57.632;11.962;2022-10-17T05:03:49;101298.84;;;20.93;54.30
13011;BME280;6786;57.632;11.962;2022-10-17T05:06:19;101329.75;;;21.08;54.21
13011;BME280;6786;57.632;11.962;2022-10-17T05:08:48;101337.81;;;21.08;54.41
13011;BME280;6786;57.632;11.962;2022-10-17T05:11:17;101329.75;;;21.08;54.12
13011;BME280;6786;57.632;11.962;2022-10-17T05:13:50;101323.56;;;21.08;54.40
13011;BME280;6786;57.632;11.962;2022-10-17T05:16:19;101322.69;;;21.07;54.03
13011;BME280;6786;57.632;11.962;2022-10-17T05:18:47;101322.69;;;21.07;54.31
13011;BME280;6786;57.632;11.962;2022-10-17T05:21:19;101279.56;;;20.88;54.31
13011;BME280;6786;57.632;11.962;2022-10-17T05:23:48;101276.88;;;20.88;54.19
13011;BME280;6786;57.632;11.962;2022-10-17T05:26:16;101320.88;;;21.08;54.46
13011;BME280;6786;57.632;11.962;2022-10-17T05:28:45;101315.50;;;21.08;54.37
13011;BME280;6786;57.632;11.962;2022-10-17T05:31:14;101313.63;;;21.08;54.25
13011;BME280;6786;57.632;11.962;2022-10-17T05:33:43;101317.31;;;21.07;54.35
13011;BME280;6786;57.632;11.962;2022-10-17T05:36:11;101313.63;;;21.08;54.14
13011;BME280;6786;57.632;11.962;2022-10-17T05:38:39;101317.19;;;21.09;54.36
13011;BME280;6786;57.632;11.962;2022-10-17T05:41:08;101320.72;;;21.09;54.19
13011;BME280;6786;57.632;11.962;2022-10-17T05:43:36;101324.38;;;21.08;54.20
13011;BME280;6786;57.632;11.962;2022-10-17T05:46:08;101330.75;;;21.07;54.29
13011;BME280;6786;57.632;11.962;2022-10-17T05:48:38;101321.81;;;21.07;54.01
13011;BME280;6786;57.632;11.962;2022-10-17T05:51:07;101333.44;;;21.07;54.27
13011;BME280;6786;57.632;11.962;2022-10-17T05:53:37;101326.38;;;21.06;54.23
13011;BME280;6786;57.632;11.962;2022-10-17T05:56:07;101320.53;;;21.01;54.17
13011;BME280;6786;57.632;11.962;2022-10-17T05:58:38;101324.50;;;21.07;54.17
13011;BME280;6786;57.632;11.962;2022-10-17T06:01:27;101326.38;;;21.06;54.33
13011;BME280;6786;57.632;11.962;2022-10-17T06:03:56;101330.03;;;21.05;54.42
13011;BME280;6786;57.632;11.962;2022-10-17T06:06:24;101323.81;;;21.05;54.19
13011;BME280;6786;57.632;11.962;2022-10-17T06:08:52;101317.84;;;21.01;54.39
13011;BME280;6786;57.632;11.962;2022-10-17T06:11:21;101338.09;;;21.05;54.47
13011;BME280;6786;57.632;11.962;2022-10-17T06:13:49;101333.72;;;21.04;54.19
13011;BME280;6786;57.632;11.962;2022-10-17T06:16:17;101340.78;;;21.05;54.11
13011;BME280;6786;57.632;11.962;2022-10-17T06:18:45;101344.47;;;21.04;54.02
13011;BME280;6786;57.632;11.962;2022-10-17T06:21:18;101342.75;;;21.03;54.36
13011;BME280;6786;57.632;11.962;2022-10-17T06:23:48;101348.16;;;21.03;54.25
13011;BME280;6786;57.632;11.962;2022-10-17T06:26:16;101348.16;;;21.03;54.38
13011;BME280;6786;57.632;11.962;2022-10-17T06:28:44;101351.78;;;21.02;54.17
13011;BME280;6786;57.632;11.962;2022-10-17T06:31:15;101344.47;;;21.04;54.27
13011;BME280;6786;57.632;11.962;2022-10-17T06:33:43;101365.22;;;21.02;54.31
13011;BME280;6786;57.632;11.962;2022-10-17T06:36:14;101374.03;;;21.04;54.30
13011;BME280;6786;57.632;11.962;2022-10-17T06:38:42;101375.03;;;21.03;54.29
13011;BME280;6786;57.632;11.962;2022-10-17T06:41:12;101366.22;;;21.01;54.14
13011;BME280;6786;57.632;11.962;2022-10-17T06:43:41;101369.66;;;21.03;53.95
13011;BME280;6786;57.632;11.962;2022-10-17T06:46:12;101371.34;;;21.04;54.05
13011;BME280;6786;57.632;11.962;2022-10-17T06:48:40;101367.66;;;21.05;54.23
13011;BME280;6786;57.632;11.962;2022-10-17T06:51:09;101368.66;;;21.04;54.34
13011;BME280;6786;57.632;11.962;2022-10-17T06:53:39;101343.84;;;20.80;54.39
13011;BME280;6786;57.632;11.962;2022-10-17T06:56:08;101374.75;;;21.06;54.32
13011;BME280;6786;57.632;11.962;2022-10-17T06:58:39;101378.41;;;21.05;54.03
13011;BME280;6786;57.632;11.962;2022-10-17T07:01:09;101376.72;;;21.04;54.38
13011;BME280;6786;57.632;11.962;2022-10-17T07:03:37;101379.28;;;21.06;54.36
13011;BME280;6786;57.632;11.962;2022-10-17T07:06:06;101380.97;;;21.07;54.28
13011;BME280;6786;57.632;11.962;2022-10-17T07:08:36;101365.66;;;20.98;54.26
13011;BME280;6786;57.632;11.962;2022-10-17T07:11:10;101389.16;;;21.05;54.38
13011;BME280;6786;57.632;11.962;2022-10-17T07:13:39;101394.53;;;21.05;54.22
13011;BME280;6786;57.632;11.962;2022-10-17T07:16:07;101403.59;;;21.04;54.26
13011;BME280;6786;57.632;11.962;2022-10-17T07:18:36;101399.91;;;21.05;54.04
13011;BME280;6786;57.632;11.962;2022-10-17T07:21:04;101410.66;;;21.05;54.02
13011;BME280;6786;57.632;11.962;2022-10-17T07:23:35;101416.03;;;21.05;54.27
13011;BME280;6786;57.632;11.962;2022-10-17T07:26:06;101405.53;;;21.02;54.29
13011;BME280;6786;57.632;11.962;2022-10-17T07:28:38;101403.16;;;20.99;54.25
13011;BME280;6786;57.632;11.962;2022-10-17T07:31:08;101414.34;;;21.04;54.15
13011;BME280;6786;57.632;11.962;2022-10-17T07:33:37;101393.41;;;20.87;54.20
13011;BME280;6786;57.632;11.962;2022-10-17T07:36:06;101410.91;;;21.02;54.19
13011;BME280;6786;57.632;11.962;2022-10-17T07:38:37;101423.41;;;21.03;54.39
13011;BME280;6786;57.632;11.962;2022-10-17T07:41:06;101425.09;;;21.04;53.93
13011;BME280;6786;57.632;11.962;2022-10-17T07:43:36;101421.66;;;21.02;54.17
13011;BME280;6786;57.632;11.962;2022-10-17T07:46:05;101418.03;;;21.03;54.06
13011;BME280;6786;57.632;11.962;2022-10-17T07:48:34;101402.91;;;20.91;53.88
13011;BME280;6786;57.632;11.962;2022-10-17T07:51:02;101418.84;;;21.04;54.18
13011;BME280;6786;57.632;11.962;2022-10-17T07:53:31;101431.47;;;21.03;54.08
13011;BME280;6786;57.632;11.962;2022-10-17T07:56:03;101446.59;;;21.04;54.00
13011;BME280;6786;57.632;11.962;2022-10-17T07:58:32;101437.53;;;21.05;54.14
13011;BME280;6786;57.632;11.962;2022-10-17T08:01:03;101433.88;;;21.06;54.16
13011;BME280;6786;57.632;11.962;2022-10-17T08:03:35;101422.66;;;21.01;54.27
13011;BME280;6786;57.632;11.962;2022-10-17T08:06:03;101414.59;;;21.01;54.04
13011;BME280;6786;57.632;11.962;2022-10-17T08:08:31;101414.59;;;21.01;54.39
13011;BME280;6786;57.632;11.962;2022-10-17T08:11:02;101360.88;;;20.70;54.22
13011;BME280;6786;57.632;11.962;2022-10-17T08:13:30;101409.22;;;21.01;54.08
13011;BME280;6786;57.632;11.962;2022-10-17T08:15:59;101410.91;;;21.02;54.13
13011;BME280;6786;57.632;11.962;2022-10-17T08:18:29;101389.25;;;20.83;54.09
13011;BME280;6786;57.632;11.962;2022-10-17T08:20:58;101387.31;;;20.85;54.31
13011;BME280;6786;57.632;11.962;2022-10-17T08:23:27;101412.91;;;21.00;54.20
13011;BME280;6786;57.632;11.962;2022-10-17T08:25:58;101393.63;;;20.95;54.31
13011;BME280;6786;57.632;11.962;2022-10-17T08:28:26;101402.41;;;20.97;54.44
13011;BME280;6786;57.632;11.962;2022-10-17T08:31:01;101395.34;;;20.96;54.04
13011;BME280;6786;57.632;11.962;2022-10-17T08:33:30;101401.28;;;21.00;54.28
13011;BME280;6786;57.632;11.962;2022-10-17T08:35:59;101393.84;;;20.92;54.40
13011;BME280;6786;57.632;11.962;2022-10-17T08:38:28;101395.91;;;21.00;54.33
13011;BME280;6786;57.632;11.962;2022-10-17T08:41:03;101392.66;;;20.96;54.08
13011;BME280;6786;57.632;11.962;2022-10-17T08:43:40;101370.94;;;20.88;54.37
13011;BME280;6786;57.632;11.962;2022-10-17T08:46:12;101391.41;;;21.00;54.42
13011;BME280;6786;57.632;11.962;2022-10-17T08:48:48;101369.50;;;20.84;54.28
13011;BME280;6786;57.632;11.962;2022-10-17T08:51:20;101395.09;;;20.99;53.96
13011;BME280;6786;57.632;11.962;2022-10-17T08:53:52;101395.09;;;20.99;54.25
13011;BME280;6786;57.632;11.962;2022-10-17T08:56:38;101400.47;;;20.99;53.96
13011;BME280;6786;57.632;11.962;2022-10-17T08:59:17;101403.00;;;21.01;54.09
13011;BME280;6786;57.632;11.962;2022-10-17T09:01:49;101405.84;;;20.99;54.03
13011;BME280;6786;57.632;11.962;2022-10-17T09:04:50;101407.53;;;21.00;54.06
13011;BME280;6786;57.632;11.962;2022-10-17T09:07:33;101398.75;;;20.98;54.01
13011;BME280;6786;57.632;11.962;2022-10-17T09:10:09;101400.47;;;20.99;54.07
13011;BME280;6786;57.632;11.962;2022-10-17T09:12:48;101397.91;;;20.98;54.10
13011;BME280;6786;57.632;11.962;2022-10-17T09:15:34;101388.00;;;20.98;54.05
13011;BME280;6786;57.632;11.962;2022-10-17T09:18:10;101389.97;;;20.96;54.19
13011;BME280;6786;57.632;11.962;2022-10-17T09:20:48;101380.91;;;20.97;54.31
13011;BME280;6786;57.632;11.962;2022-10-17T09:23:20;101379.22;;;20.96;54.20
13011;BME280;6786;57.632;11.962;2022-10-17T09:25:52;101373.22;;;20.93;54.31
13011;BME280;6786;57.632;11.962;2022-10-17T09:28:24;101387.28;;;20.96;54.22
13011;BME280;6786;57.632;11.962;2022-10-17T09:30:56;101378.38;;;20.96;54.22
13011;BME280;6786;57.632;11.962;2022-10-17T09:33:29;101388.47;;;20.92;54.32
13011;BME280;6786;57.632;11.962;2022-10-17T09:36:22;101374.09;;;20.93;54.32
13011;BME280;6786;57.632;11.962;2022-10-17T09:38:54;101373.84;;;20.96;54.31
13011;BME280;6786;57.632;11.962;2022-10-17T09:41:33;101377.72;;;20.92;54.21
13011;BME280;6786;57.632;11.962;2022-10-17T09:44:18;101357.09;;;20.93;54.40
13011;BME280;6786;57.632;11.962;2022-10-17T09:47:05;101354.03;;;20.97;53.97
13011;BME280;6786;57.632;11.962;2022-10-17T09:49:37;101337.81;;;20.88;54.17
13011;BME280;6786;57.632;11.962;2022-10-17T09:52:10;101350.38;;;20.98;54.04
13011;BME280;6786;57.632;11.962;2022-10-17T09:54:42;101342.44;;;20.97;54.42
13011;BME280;6786;57.632;11.962;2022-10-17T09:57:12;101341.59;;;20.96;54.47
13011;BME280;6786;57.632;11.962;2022-10-17T09:59:42;101325.47;;;20.96;54.48
13011;BME280;6786;57.632;11.962;2022-10-17T10:02:17;101330.22;;;20.93;54.33
13011;BME280;6786;57.632;11.962;2022-10-17T10:04:54;101322.28;;;20.91;54.43
13011;BME280;6786;57.632;11.962;2022-10-17T10:07:33;101316.69;;;20.94;54.43
13011;BME280;6786;57.632;11.962;2022-10-17T10:10:04;101297.13;;;20.92;54.28
13011;BME280;6786;57.632;11.962;2022-10-17T10:12:35;101304.47;;;20.90;54.38
13011;BME280;6786;57.632;11.962;2022-10-17T10:15:30;101316.69;;;20.94;54.38
13011;BME280;6786;57.632;11.962;2022-10-17T10:17:59;101315.78;;;20.94;54.25
13011;BME280;6786;57.632;11.962;2022-10-17T10:20:31;101313.00;;;20.95;54.21
13011;BME280;6786;57.632;11.962;2022-10-17T10:23:12;101317.41;;;20.96;54.14
13011;BME280;6786;57.632;11.962;2022-10-17T10:25:55;101311.03;;;20.97;54.27
13011;BME280;6786;57.632;11.962;2022-10-17T10:28:25;101320.09;;;20.96;54.21
13011;BME280;6786;57.632;11.962;2022-10-17T10:30:56;101304.81;;;20.97;54.38
13011;BME280;6786;57.632;11.962;2022-10-17T10:33:27;101291.75;;;20.92;54.24
13011;BME280;6786;57.632;11.962;2022-10-17T10:35:58;101297.59;;;20.97;54.42
13011;BME280;6786;57.632;11.962;2022-10-17T10:38:31;101238.72;;;20.64;54.24
13011;BME280;6786;57.632;11.962;2022-10-17T10:41:05;101285.31;;;20.95;54.24
13011;BME280;6786;57.632;11.962;2022-10-17T10:43:36;101291.50;;;20.95;54.57
13011;BME280;6786;57.632;11.962;2022-10-17T10:46:15;101296.88;;;20.95;54.25
13011;BME280;6786;57.632;11.962;2022-10-17T10:48:52;101289.81;;;20.94;54.18
13011;BME280;6786;57.632;11.962;2022-10-17T10:51:24;101293.22;;;20.96;54.43
13011;BME280;6786;57.632;11.962;2022-10-17T10:54:00;101279.06;;;20.94;54.41
13011;BME280;6786;57.632;11.962;2022-10-17T10:56:32;101296.88;;;20.95;54.26
13011;BME280;6786;57.632;11.962;2022-10-17T10:59:09;101222.84;;;20.61;54.08
13011;BME280;6786;57.632;11.962;2022-10-17T11:01:44;101275.88;;;20.89;54.08
13011;BME280;6786;57.632;11.962;2022-10-17T11:04:25;101279.78;;;20.96;54.14
13011;BME280;6786;57.632;11.962;2022-10-17T11:06:59;101275.13;;;20.98;54.46
13011;BME280;6786;57.632;11.962;2022-10-17T11:09:39;101259.50;;;20.92;54.71
13011;BME280;6786;57.632;11.962;2022-10-17T11:12:16;101242.47;;;20.82;54.71
13011;BME280;6786;57.632;11.962;2022-10-17T11:14:52;101257.03;;;21.00;54.62
13011;BME280;6786;57.632;11.962;2022-10-17T11:17:29;101251.66;;;21.00;54.52
13011;BME280;6786;57.632;11.962;2022-10-17T11:20:08;101240.91;;;21.00;54.41
13011;BME280;6786;57.632;11.962;2022-10-17T11:22:41;101234.66;;;21.00;54.25
13011;BME280;6786;57.632;11.962;2022-10-17T11:25:21;101235.53;;;21.00;54.64
13011;BME280;6786;57.632;11.962;2022-10-17T11:27:55;101232.84;;;21.00;54.61
13011;BME280;6786;57.632;11.962;2022-10-17T11:30:40;101192.44;;;20.81;54.53
13011;BME280;6786;57.632;11.962;2022-10-17T11:33:23;101215.03;;;20.99;54.32
13011;BME280;6786;57.632;11.962;2022-10-17T11:35:55;101210.63;;;20.98;54.50
13011;BME280;6786;57.632;11.962;2022-10-17T11:38:35;101204.41;;;20.98;54.49
13011;BME280;6786;57.632;11.962;2022-10-17T11:41:09;101198.19;;;20.97;54.42
13011;BME280;6786;57.632;11.962;2022-10-17T11:43:43;101128.41;;;20.56;54.42
13011;BME280;6786;57.632;11.962;2022-10-17T11:46:15;101163.56;;;20.83;54.54
13011;BME280;6786;57.632;11.962;2022-10-17T11:48:58;101175.00;;;20.96;54.59
13011;BME280;6786;57.632;11.962;2022-10-17T11:51:29;101171.81;;;20.91;54.44
13011;BME280;6786;57.632;11.962;2022-10-17T11:54:27;101164.25;;;20.96;54.62
13011;BME280;6786;57.632;11.962;2022-10-17T11:57:11;101171.56;;;20.94;54.62
13011;BME280;6786;57.632;11.962;2022-10-17T11:59:58;101175.00;;;20.96;54.72
13011;BME280;6786;57.632;11.962;2022-10-17T12:02:41;101163.50;;;20.94;54.78
13011;BME280;6786;57.632;11.962;2022-10-17T12:05:21;101113.22;;;20.76;54.52
13011;BME280;6786;57.632;11.962;2022-10-17T12:07:58;101139.06;;;20.97;54.65
13011;BME280;6786;57.632;11.962;2022-10-17T12:10:44;101135.38;;;20.98;55.04
13011;BME280;6786;57.632;11.962;2022-10-17T12:16:43;101134.41;;;20.99;55.08
13011;BME280;6786;57.632;11.962;2022-10-17T12:19:29;101068.81;;;20.72;55.04
13011;BME280;6786;57.632;11.962;2022-10-17T12:22:05;101123.47;;;21.01;54.91
13011;BME280;6786;57.632;11.962;2022-10-17T12:24:53;101147.53;;;21.02;55.23
13011;BME280;6786;57.632;11.962;2022-10-17T12:27:35;101120.38;;;20.96;55.18
13011;BME280;6786;57.632;11.962;2022-10-17T12:30:15;101113.19;;;20.96;55.23
13011;BME280;6786;57.632;11.962;2022-10-17T12:33:04;101114.59;;;21.00;55.17
13011;BME280;6786;57.632;11.962;2022-10-17T12:35:36;101087.53;;;20.92;55.24
13011;BME280;6786;57.632;11.962;2022-10-17T12:38:23;101092.81;;;21.03;55.43
13011;BME280;6786;57.632;11.962;2022-10-17T12:40:59;101086.44;;;21.04;55.29
13011;BME280;6786;57.632;11.962;2022-10-17T12:43:44;101055.28;;;20.92;55.47
13011;BME280;6786;57.632;11.962;2022-10-17T12:46:42;101054.06;;;20.96;55.27
13011;BME280;6786;57.632;11.962;2022-10-17T12:49:40;101050.50;;;21.05;55.41
13011;BME280;6786;57.632;11.962;2022-10-17T12:52:50;101046.00;;;21.06;55.33
13011;BME280;6786;57.632;11.962;2022-10-17T12:55:23;100998.16;;;20.90;55.04
13011;BME280;6786;57.632;11.962;2022-10-17T12:57:56;101011.19;;;21.04;55.12
13011;BME280;6786;57.632;11.962;2022-10-17T13:00:32;100976.66;;;20.90;55.11
13011;BME280;6786;57.632;11.962;2022-10-17T13:03:05;100982.34;;;21.06;55.44
13011;BME280;6786;57.632;11.962;2022-10-17T13:05:40;100960.25;;;20.93;55.38
13011;BME280;6786;57.632;11.962;2022-10-17T13:08:18;100976.69;;;21.09;55.31
13011;BME280;6786;57.632;11.962;2022-10-17T13:10:51;100965.94;;;21.09;55.23
13011;BME280;6786;57.632;11.962;2022-10-17T13:13:24;100928.59;;;20.87;55.22
13011;BME280;6786;57.632;11.962;2022-10-17T13:15:54;100930.84;;;21.01;55.19
13011;BME280;6786;57.632;11.962;2022-10-17T13:18:24;100925.63;;;21.09;55.34
13011;BME280;6786;57.632;11.962;2022-10-17T13:20:59;100905.94;;;21.09;55.26
13011;BME280;6786;57.632;11.962;2022-10-17T13:23:31;100889.00;;;20.80;55.33
13011;BME280;6786;57.632;11.962;2022-10-17T13:26:13;100915.44;;;21.03;55.41
13011;BME280;6786;57.632;11.962;2022-10-17T13:28:42;100900.28;;;21.02;55.38